< Typhoon 198220 1982 Season Typhoon 198222 >
Typhoon 198221 (MAC)
General InformationTrack Information on Google MapsDetailed Wind InformationList of All Images || Disaster Info.ResourceGoogle EarthGE AnimationAtom FeedGeoJSON
Detalied Best Track (Time Zone = UTC)
Year Month Day Hour Lat. Long. Pressure (hPa) Wind (kt) Class Image Chart
1982 10 1 06 11.0 150.0 1004 0 2 Image Chart
1982 10 1 12 11.5 149.5 1002 0 2 Image Chart
1982 10 1 18 11.9 149.1 1000 0 2 Image Chart
1982 10 2 00 12.2 148.4 1000 0 2 Image Chart
1982 10 2 06 12.3 147.5 994 40 3 Image Chart
1982 10 2 12 12.5 146.6 990 40 3 Image Chart
1982 10 2 18 12.6 145.6 985 60 4 Image Chart
1982 10 3 00 13.0 144.6 970 60 4 Image Chart
1982 10 3 06 13.3 143.7 960 80 5 Image Chart
1982 10 3 12 13.7 143.0 955 80 5 Image Chart
1982 10 3 18 14.1 142.1 955 80 5 Image Chart
1982 10 4 00 14.6 141.4 940 80 5 Image Chart
1982 10 4 06 15.1 140.6 920 85 5 Image Chart
1982 10 4 12 15.6 139.7 905 100 5 Image Chart
1982 10 4 18 15.9 139.0 900 100 5 Image Chart
1982 10 5 00 16.2 138.3 895 120 5 Image Chart
1982 10 5 06 16.7 137.6 905 120 5 Image Chart
1982 10 5 12 17.3 136.8 905 110 5 Image Chart
1982 10 5 18 17.9 136.3 920 100 5 Image Chart
1982 10 6 00 18.2 135.9 920 100 5 Image Chart
1982 10 6 06 19.5 135.6 920 100 5 Image Chart
1982 10 6 12 20.4 135.4 915 100 5 Image Chart
1982 10 6 18 21.1 135.3 910 100 5 Image Chart
1982 10 7 00 21.9 135.3 920 100 5 Image Chart
1982 10 7 06 23.3 135.6 920 100 5 Image Chart
1982 10 7 12 24.6 136.0 925 100 5 Image Chart
1982 10 7 18 26.1 136.6 930 100 5 Image Chart
1982 10 8 00 27.7 137.4 935 90 5 Image Chart
1982 10 8 06 29.7 138.4 935 90 5 Image Chart
1982 10 8 12 31.6 140.2 940 85 5 Image Chart
1982 10 8 18 33.2 142.2 960 80 5 Image Chart
1982 10 9 00 34.5 144.7 965 0 6 Image Chart
1982 10 9 06 35.0 147.0 972 0 6 Image Chart
1982 10 9 12 36.0 149.0 980 0 6 Image Chart
1982 10 9 18 36.0 151.0 988 0 6 Image Chart
1982 10 10 00 35.0 152.0 996 0 6 Image Chart
1982 10 10 06 34.5 153.0 1000 0 6 Image Chart
1982 10 10 12 34.0 154.0 1004 0 6 Image Chart
1982 10 10 18 33.0 155.0 1008 0 6 Image Chart
1982 10 11 00 32.0 156.0 1012 0 6 Image Chart
1982 10 11 06 32.0 156.5 1014 0 6 Image Chart
1982 10 11 12 32.0 157.0 1014 0 6 Image Chart
1982 10 11 18 32.0 157.0 1014 0 6 Image Chart
1982 10 12 00 32.0 157.0 1014 0 6 Image Chart
1982 10 12 06 32.0 157.0 1016 0 6 Image Chart
1982 10 12 12 32.0 157.0 1018 0 6 Image Chart
Japan Meteorological Agency Best Track Data | Correction Date : 1992-10-21
< Typhoon 198220 1982 Season Typhoon 198222 >

Help